Nicole Leigh Reinauer — WCZ5696 — position and weather

sailwx.info

Track history (hours):
 
Tides and Currents Weather Stations Pressure Air Temp Water Temp Dewpoint Dewpoint Depression Visibility Wind Speed Wind Dir Waves Ship Positions

Nicole Leigh Reinauer

Owner: H A REINAUER INC, STATEN ISLAND, NY. More information available from US FCC via Universal Licensing System and Coast Guard Vessel Documentation Center.

Last reported at 2016-Aug-24 06:33 UTC. Time now 2016-Aug-24 13:43 UTC.
Position N 41°48' W 071°24'.

Length 167 m; draft 6.5 m.

Type: Tanker. MMSI: 366774330.

Date/timePositionNaut miles runAvg speedWind from/ knotsBaromVisibWave heightAir tempDewpointWater temp
2016-Aug-24 06:33N 41°48' W 071°24'16 7.9
2016-Aug-24 04:33N 41°33' W 071°20'13310.1
2016-Aug-23 15:24N 40°27' W 073°53'9 9.7
2016-Aug-23 14:30N 40°29' W 074°04'  
2016-Aug-21 03:24N 40°35' W 074°13'6 7.2
2016-Aug-21 02:33N 40°39' W 074°07'5 5.1
2016-Aug-21 01:31N 40°36' W 074°01'0 0.0
2016-Aug-21 00:31N 40°36' W 074°01'0 0.1
2016-Aug-20 23:31N 40°36' W 074°01'0 0.1
2016-Aug-20 22:25N 40°36' W 074°01'0 0.1
2016-Aug-20 21:31N 40°36' W 074°01'0 0.1
2016-Aug-20 20:31N 40°35' W 074°01'0 0.0
2016-Aug-20 19:31N 40°35' W 074°01'0 0.0
2016-Aug-20 18:28N 40°35' W 074°01'0 0.0
2016-Aug-20 17:31N 40°35' W 074°01'0 0.1
2016-Aug-20 16:31N 40°35' W 074°01'0 0.1
2016-Aug-20 15:31N 40°35' W 074°01'0 0.1
2016-Aug-20 14:31N 40°36' W 074°01'0 0.1
2016-Aug-20 13:31N 40°36' W 074°01'0 0.1
2016-Aug-20 12:31N 40°36' W 074°01'0 0.0
2016-Aug-20 11:31N 40°36' W 074°01'0 0.1
2016-Aug-20 10:31N 40°35' W 074°01'0 0.0
2016-Aug-20 09:31N 40°35' W 074°01'0 0.0
2016-Aug-20 08:31N 40°35' W 074°01'0 0.0
2016-Aug-20 07:31N 40°35' W 074°01'0 0.0
2016-Aug-20 06:31N 40°35' W 074°01'0 0.0
2016-Aug-20 05:31N 40°35' W 074°01'0 0.1
2016-Aug-20 04:31N 40°35' W 074°01'0 0.0
2016-Aug-20 03:31N 40°35' W 074°01'0 0.0
2016-Aug-20 02:31N 40°35' W 074°01'0 0.1
2016-Aug-20 01:31N 40°35' W 074°01'0 0.1
2016-Aug-20 00:28N 40°36' W 074°01'0 0.1
2016-Aug-19 23:31N 40°36' W 074°01'0 0.0
2016-Aug-19 22:31N 40°36' W 074°01'0 0.2
2016-Aug-19 21:28N 40°35' W 074°01'0 0.0
2016-Aug-19 20:31N 40°35' W 074°01'0 0.0
2016-Aug-19 19:31N 40°35' W 074°01'0 0.0
2016-Aug-19 18:31N 40°35' W 074°01'0 0.0
2016-Aug-19 17:28N 40°35' W 074°01'0 0.1
2016-Aug-19 16:31N 40°35' W 074°01'0 0.0
2016-Aug-19 15:31N 40°35' W 074°01'0 0.0
2016-Aug-19 14:33N 40°35' W 074°01'0 0.0
2016-Aug-19 13:33N 40°35' W 074°01'0 0.1
2016-Aug-19 12:33N 40°35' W 074°01'0 0.1
2016-Aug-19 11:34N 40°35' W 074°01'0 0.0
2016-Aug-19 10:33N 40°36' W 074°01'0 0.1
2016-Aug-19 09:33N 40°35' W 074°01'0 0.0
2016-Aug-19 08:33N 40°35' W 074°01'0 0.0
2016-Aug-19 07:33N 40°35' W 074°01'0 0.1
2016-Aug-19 06:34N 40°35' W 074°01'8 8.3
2016-Aug-19 05:33N 40°43' W 073°58'5811.3
2016-Aug-19 00:24N 41°06' W 072°47'1012.0
2016-Aug-18 23:33N 41°08' W 072°34'1111.6
2016-Aug-18 22:33N 41°11' W 072°19'50 9.5
2016-Aug-18 17:16N 41°34' W 071°19'811.2
2016-Aug-18 16:33N 41°42' W 071°19'7 0.5
2016-Aug-18 00:33N 41°48' W 071°24'0 0.0
2016-Aug-17 23:33N 41°48' W 071°24'0 0.0
2016-Aug-17 22:33N 41°48' W 071°24'0 0.1
2016-Aug-17 21:33N 41°48' W 071°24'8 8.4
2016-Aug-17 20:33N 41°41' W 071°19'132 9.9
2016-Aug-17 07:12N 40°29' W 073°47'711.2
2016-Aug-17 06:33N 40°30' W 073°56'1111.5
2016-Aug-17 05:34N 40°39' W 074°05'7 0.3
2016-Aug-16 01:15N 40°34' W 074°13'5 7.8
2016-Aug-16 00:33N 40°39' W 074°08'0 0.2
2016-Aug-15 23:33N 40°38' W 074°08'0 0.0
2016-Aug-15 22:33N 40°38' W 074°08'8 1.2
2016-Aug-15 15:15N 40°30' W 074°09'5 7.6
2016-Aug-15 14:33N 40°31' W 074°03'4 4.3
2016-Aug-15 13:32N 40°36' W 074°01'0 0.0
2016-Aug-15 12:32N 40°36' W 074°01'0 0.0
2016-Aug-15 11:29N 40°36' W 074°01'0 0.1
2016-Aug-15 10:29N 40°36' W 074°01'0 0.0
2016-Aug-15 09:32N 40°36' W 074°01'0 0.0
2016-Aug-15 08:31N 40°36' W 074°01'0 0.1
2016-Aug-15 07:32N 40°36' W 074°02'1 1.0
2016-Aug-15 06:33N 40°36' W 074°03'  
Track history (hours):
 
Tides and Currents Weather Stations Pressure Air Temp Water Temp Dewpoint Dewpoint Depression Visibility Wind Speed Wind Dir Waves Ship Positions

Nicole Leigh Reinauer

Owner: H A REINAUER INC, STATEN ISLAND, NY. More information available from US FCC via Universal Licensing System and Coast Guard Vessel Documentation Center.

Last reported at 2016-Aug-24 06:33 UTC. Time now 2016-Aug-24 13:43 UTC.
Position N 41°48' W 071°24'.

Length 167 m; draft 6.5 m.

Type: Tanker. MMSI: 366774330.

Date/timePositionNaut miles runAvg speedWind from/ knotsBaromVisibWave heightAir tempDewpointWater temp
2016-Aug-24 06:33N 41°48' W 071°24'16 7.9
2016-Aug-24 04:33N 41°33' W 071°20'13310.1
2016-Aug-23 15:24N 40°27' W 073°53'9 9.7
2016-Aug-23 14:30N 40°29' W 074°04'  
2016-Aug-21 03:24N 40°35' W 074°13'6 7.2
2016-Aug-21 02:33N 40°39' W 074°07'5 5.1
2016-Aug-21 01:31N 40°36' W 074°01'0 0.0
2016-Aug-21 00:31N 40°36' W 074°01'0 0.1
2016-Aug-20 23:31N 40°36' W 074°01'0 0.1
2016-Aug-20 22:25N 40°36' W 074°01'0 0.1
2016-Aug-20 21:31N 40°36' W 074°01'0 0.1
2016-Aug-20 20:31N 40°35' W 074°01'0 0.0
2016-Aug-20 19:31N 40°35' W 074°01'0 0.0
2016-Aug-20 18:28N 40°35' W 074°01'0 0.0
2016-Aug-20 17:31N 40°35' W 074°01'0 0.1
2016-Aug-20 16:31N 40°35' W 074°01'0 0.1
2016-Aug-20 15:31N 40°35' W 074°01'0 0.1
2016-Aug-20 14:31N 40°36' W 074°01'0 0.1
2016-Aug-20 13:31N 40°36' W 074°01'0 0.1
2016-Aug-20 12:31N 40°36' W 074°01'0 0.0
2016-Aug-20 11:31N 40°36' W 074°01'0 0.1
2016-Aug-20 10:31N 40°35' W 074°01'0 0.0
2016-Aug-20 09:31N 40°35' W 074°01'0 0.0
2016-Aug-20 08:31N 40°35' W 074°01'0 0.0
2016-Aug-20 07:31N 40°35' W 074°01'0 0.0
2016-Aug-20 06:31N 40°35' W 074°01'0 0.0
2016-Aug-20 05:31N 40°35' W 074°01'0 0.1
2016-Aug-20 04:31N 40°35' W 074°01'0 0.0
2016-Aug-20 03:31N 40°35' W 074°01'0 0.0
2016-Aug-20 02:31N 40°35' W 074°01'0 0.1
2016-Aug-20 01:31N 40°35' W 074°01'0 0.1
2016-Aug-20 00:28N 40°36' W 074°01'0 0.1
2016-Aug-19 23:31N 40°36' W 074°01'0 0.0
2016-Aug-19 22:31N 40°36' W 074°01'0 0.2
2016-Aug-19 21:28N 40°35' W 074°01'0 0.0
2016-Aug-19 20:31N 40°35' W 074°01'0 0.0
2016-Aug-19 19:31N 40°35' W 074°01'0 0.0
2016-Aug-19 18:31N 40°35' W 074°01'0 0.0
2016-Aug-19 17:28N 40°35' W 074°01'0 0.1
2016-Aug-19 16:31N 40°35' W 074°01'0 0.0
2016-Aug-19 15:31N 40°35' W 074°01'0 0.0
2016-Aug-19 14:33N 40°35' W 074°01'0 0.0
2016-Aug-19 13:33N 40°35' W 074°01'0 0.1
2016-Aug-19 12:33N 40°35' W 074°01'0 0.1
2016-Aug-19 11:34N 40°35' W 074°01'0 0.0
2016-Aug-19 10:33N 40°36' W 074°01'0 0.1
2016-Aug-19 09:33N 40°35' W 074°01'0 0.0
2016-Aug-19 08:33N 40°35' W 074°01'0 0.0
2016-Aug-19 07:33N 40°35' W 074°01'0 0.1
2016-Aug-19 06:34N 40°35' W 074°01'8 8.3
2016-Aug-19 05:33N 40°43' W 073°58'5811.3
2016-Aug-19 00:24N 41°06' W 072°47'1012.0
2016-Aug-18 23:33N 41°08' W 072°34'1111.6
2016-Aug-18 22:33N 41°11' W 072°19'50 9.5
2016-Aug-18 17:16N 41°34' W 071°19'811.2
2016-Aug-18 16:33N 41°42' W 071°19'7 0.5
2016-Aug-18 00:33N 41°48' W 071°24'0 0.0
2016-Aug-17 23:33N 41°48' W 071°24'0 0.0
2016-Aug-17 22:33N 41°48' W 071°24'0 0.1
2016-Aug-17 21:33N 41°48' W 071°24'8 8.4
2016-Aug-17 20:33N 41°41' W 071°19'132 9.9
2016-Aug-17 07:12N 40°29' W 073°47'711.2
2016-Aug-17 06:33N 40°30' W 073°56'1111.5
2016-Aug-17 05:34N 40°39' W 074°05'7 0.3
2016-Aug-16 01:15N 40°34' W 074°13'5 7.8
2016-Aug-16 00:33N 40°39' W 074°08'0 0.2
2016-Aug-15 23:33N 40°38' W 074°08'0 0.0
2016-Aug-15 22:33N 40°38' W 074°08'8 1.2
2016-Aug-15 15:15N 40°30' W 074°09'5 7.6
2016-Aug-15 14:33N 40°31' W 074°03'4 4.3
2016-Aug-15 13:32N 40°36' W 074°01'0 0.0
2016-Aug-15 12:32N 40°36' W 074°01'0 0.0
2016-Aug-15 11:29N 40°36' W 074°01'0 0.1
2016-Aug-15 10:29N 40°36' W 074°01'0 0.0
2016-Aug-15 09:32N 40°36' W 074°01'0 0.0
2016-Aug-15 08:31N 40°36' W 074°01'0 0.1
2016-Aug-15 07:32N 40°36' W 074°02'1 1.0
2016-Aug-15 06:33N 40°36' W 074°03'  

Dump ship's entire track history